sensor_id;sensor_type;location;lat;lon;timestamp;pressure;altitude;pressure_sealevel;temperature;humidity
20119;BME280;10220;42.716;23.306;2023-03-18T00:01:04;95709.59;;;1.81;100.00
20119;BME280;10220;42.716;23.306;2023-03-18T00:03:30;95707.66;;;2.02;100.00
20119;BME280;10220;42.716;23.306;2023-03-18T00:06:04;95703.50;;;2.01;100.00
20119;BME280;10220;42.716;23.306;2023-03-18T00:08:30;95700.56;;;1.96;100.00
20119;BME280;10220;42.716;23.306;2023-03-18T00:10:57;95697.09;;;2.24;100.00
20119;BME280;10220;42.716;23.306;2023-03-18T00:13:23;95692.28;;;2.21;100.00
20119;BME280;10220;42.716;23.306;2023-03-18T00:15:50;95690.81;;;2.55;100.00
20119;BME280;10220;42.716;23.306;2023-03-18T00:18:16;95690.13;;;2.26;100.00
20119;BME280;10220;42.716;23.306;2023-03-18T00:20:42;95685.41;;;2.22;100.00
20119;BME280;10220;42.716;23.306;2023-03-18T00:23:07;95683.09;;;2.28;100.00
20119;BME280;10220;42.716;23.306;2023-03-18T00:25:34;95683.25;;;2.27;100.00
20119;BME280;10220;42.716;23.306;2023-03-18T00:28:00;95655.50;;;2.05;100.00
20119;BME280;10220;42.716;23.306;2023-03-18T00:30:25;95676.56;;;2.16;100.00
20119;BME280;10220;42.716;23.306;2023-03-18T00:32:50;95670.41;;;2.09;100.00
20119;BME280;10220;42.716;23.306;2023-03-18T00:35:18;95662.84;;;2.17;100.00
20119;BME280;10220;42.716;23.306;2023-03-18T00:37:43;95670.03;;;2.04;100.00
20119;BME280;10220;42.716;23.306;2023-03-18T00:40:11;95669.69;;;2.17;100.00
20119;BME280;10220;42.716;23.306;2023-03-18T00:42:41;95660.31;;;1.72;100.00
20119;BME280;10220;42.716;23.306;2023-03-18T00:45:13;95663.28;;;1.58;100.00
20119;BME280;10220;42.716;23.306;2023-03-18T00:47:40;95652.06;;;1.87;100.00
20119;BME280;10220;42.716;23.306;2023-03-18T00:50:07;95646.31;;;2.21;100.00
20119;BME280;10220;42.716;23.306;2023-03-18T00:52:33;95634.66;;;2.36;100.00
20119;BME280;10220;42.716;23.306;2023-03-18T00:54:59;95641.94;;;2.58;100.00
20119;BME280;10220;42.716;23.306;2023-03-18T00:57:27;95638.31;;;2.60;100.00
20119;BME280;10220;42.716;23.306;2023-03-18T00:59:53;95638.06;;;2.54;100.00
20119;BME280;10220;42.716;23.306;2023-03-18T01:02:19;95630.84;;;2.23;100.00
20119;BME280;10220;42.716;23.306;2023-03-18T01:04:45;95624.63;;;2.25;100.00
20119;BME280;10220;42.716;23.306;2023-03-18T01:07:11;95631.91;;;2.20;100.00
20119;BME280;10220;42.716;23.306;2023-03-18T01:09:37;95638.25;;;2.16;100.00
20119;BME280;10220;42.716;23.306;2023-03-18T01:12:07;95627.50;;;2.22;100.00
20119;BME280;10220;42.716;23.306;2023-03-18T01:14:33;95628.44;;;2.21;100.00
20119;BME280;10220;42.716;23.306;2023-03-18T01:17:00;95628.34;;;2.04;100.00
20119;BME280;10220;42.716;23.306;2023-03-18T01:19:26;95626.53;;;1.87;100.00
20119;BME280;10220;42.716;23.306;2023-03-18T01:21:53;95625.81;;;1.68;100.00
20119;BME280;10220;42.716;23.306;2023-03-18T01:24:18;95627.09;;;1.81;100.00
20119;BME280;10220;42.716;23.306;2023-03-18T01:26:44;95635.16;;;1.76;100.00
20119;BME280;10220;42.716;23.306;2023-03-18T01:29:09;95633.06;;;1.63;100.00
20119;BME280;10220;42.716;23.306;2023-03-18T01:31:35;95617.94;;;1.88;100.00
20119;BME280;10220;42.716;23.306;2023-03-18T01:34:02;95622.31;;;2.05;100.00
20119;BME280;10220;42.716;23.306;2023-03-18T01:36:28;95615.47;;;1.96;100.00
20119;BME280;10220;42.716;23.306;2023-03-18T01:38:54;95631.38;;;2.17;100.00
20119;BME280;10220;42.716;23.306;2023-03-18T01:41:20;95626.16;;;2.18;100.00
20119;BME280;10220;42.716;23.306;2023-03-18T01:43:46;95615.25;;;2.16;100.00
20119;BME280;10220;42.716;23.306;2023-03-18T01:49:02;95613.94;;;1.76;100.00
20119;BME280;10220;42.716;23.306;2023-03-18T01:51:28;95629.56;;;1.64;100.00
20119;BME280;10220;42.716;23.306;2023-03-18T01:53:56;95613.84;;;1.68;100.00
20119;BME280;10220;42.716;23.306;2023-03-18T01:56:23;95624.66;;;1.24;100.00
20119;BME280;10220;42.716;23.306;2023-03-18T01:58:52;95612.41;;;1.47;100.00
20119;BME280;10220;42.716;23.306;2023-03-18T02:01:30;95616.63;;;1.19;100.00
20119;BME280;10220;42.716;23.306;2023-03-18T02:03:56;95608.44;;;0.78;100.00
20119;BME280;10220;42.716;23.306;2023-03-18T02:06:23;95616.22;;;0.96;100.00
20119;BME280;10220;42.716;23.306;2023-03-18T02:08:49;95619.69;;;0.85;100.00
20119;BME280;10220;42.716;23.306;2023-03-18T02:11:15;95614.06;;;1.10;100.00
20119;BME280;10220;42.716;23.306;2023-03-18T02:13:43;95603.03;;;1.19;100.00
20119;BME280;10220;42.716;23.306;2023-03-18T02:16:32;95600.31;;;1.49;100.00
20119;BME280;10220;42.716;23.306;2023-03-18T02:19:04;95598.19;;;1.90;100.00
20119;BME280;10220;42.716;23.306;2023-03-18T02:26:56;95600.28;;;1.68;100.00
20119;BME280;10220;42.716;23.306;2023-03-18T02:29:25;95602.69;;;1.60;100.00
20119;BME280;10220;42.716;23.306;2023-03-18T02:31:53;95585.75;;;0.94;100.00
20119;BME280;10220;42.716;23.306;2023-03-18T02:34:21;95603.72;;;1.02;100.00
20119;BME280;10220;42.716;23.306;2023-03-18T02:36:48;95600.78;;;0.97;100.00
20119;BME280;10220;42.716;23.306;2023-03-18T02:39:15;95612.31;;;1.01;100.00
20119;BME280;10220;42.716;23.306;2023-03-18T02:41:41;95611.91;;;1.15;100.00
20119;BME280;10220;42.716;23.306;2023-03-18T02:44:10;95607.75;;;1.14;100.00
20119;BME280;10220;42.716;23.306;2023-03-18T02:49:17;95607.22;;;0.73;100.00
20119;BME280;10220;42.716;23.306;2023-03-18T02:51:43;95606.41;;;0.72;100.00
20119;BME280;10220;42.716;23.306;2023-03-18T02:54:19;95614.06;;;1.19;100.00
20119;BME280;10220;42.716;23.306;2023-03-18T02:56:44;95601.97;;;1.21;100.00
20119;BME280;10220;42.716;23.306;2023-03-18T02:59:10;95600.75;;;1.35;100.00
20119;BME280;10220;42.716;23.306;2023-03-18T03:01:38;95595.75;;;1.43;100.00
20119;BME280;10220;42.716;23.306;2023-03-18T03:04:05;95594.19;;;1.23;100.00
20119;BME280;10220;42.716;23.306;2023-03-18T03:06:31;95608.69;;;0.94;100.00
20119;BME280;10220;42.716;23.306;2023-03-18T03:08:57;95604.78;;;0.71;100.00
20119;BME280;10220;42.716;23.306;2023-03-18T03:11:25;95599.31;;;0.85;100.00
20119;BME280;10220;42.716;23.306;2023-03-18T03:13:50;95617.00;;;0.68;100.00
20119;BME280;10220;42.716;23.306;2023-03-18T03:16:17;95605.34;;;0.75;100.00
20119;BME280;10220;42.716;23.306;2023-03-18T03:18:42;95610.03;;;0.60;100.00
20119;BME280;10220;42.716;23.306;2023-03-18T03:21:09;95611.22;;;0.66;100.00
20119;BME280;10220;42.716;23.306;2023-03-18T03:23:35;95616.72;;;0.71;100.00
20119;BME280;10220;42.716;23.306;2023-03-18T03:26:01;95612.72;;;0.87;100.00
20119;BME280;10220;42.716;23.306;2023-03-18T03:28:27;95612.97;;;0.84;100.00
20119;BME280;10220;42.716;23.306;2023-03-18T03:30:53;95619.16;;;0.91;100.00
20119;BME280;10220;42.716;23.306;2023-03-18T03:33:20;95626.41;;;0.86;100.00
20119;BME280;10220;42.716;23.306;2023-03-18T03:35:45;95623.19;;;0.94;100.00
20119;BME280;10220;42.716;23.306;2023-03-18T03:38:11;95622.25;;;0.66;100.00
20119;BME280;10220;42.716;23.306;2023-03-18T03:40:37;95611.38;;;1.12;100.00
20119;BME280;10220;42.716;23.306;2023-03-18T03:43:04;95602.34;;;1.36;100.00
20119;BME280;10220;42.716;23.306;2023-03-18T03:45:30;95612.53;;;1.55;100.00
20119;BME280;10220;42.716;23.306;2023-03-18T03:47:55;95625.44;;;0.78;100.00
20119;BME280;10220;42.716;23.306;2023-03-18T03:50:21;95623.16;;;0.84;100.00
20119;BME280;10220;42.716;23.306;2023-03-18T03:52:47;95627.75;;;0.81;100.00
20119;BME280;10220;42.716;23.306;2023-03-18T03:55:16;95630.16;;;0.73;100.00
20119;BME280;10220;42.716;23.306;2023-03-18T03:57:42;95621.56;;;0.64;100.00
20119;BME280;10220;42.716;23.306;2023-03-18T04:00:11;95633.22;;;0.57;100.00
20119;BME280;10220;42.716;23.306;2023-03-18T04:02:41;95620.69;;;0.26;100.00
20119;BME280;10220;42.716;23.306;2023-03-18T04:05:08;95626.38;;;0.00;100.00
20119;BME280;10220;42.716;23.306;2023-03-18T04:07:34;95622.53;;;-0.15;100.00
20119;BME280;10220;42.716;23.306;2023-03-18T04:10:00;95632.69;;;-0.24;100.00
20119;BME280;10220;42.716;23.306;2023-03-18T04:12:27;95632.84;;;-0.16;100.00
20119;BME280;10220;42.716;23.306;2023-03-18T04:14:52;95630.59;;;0.29;100.00
20119;BME280;10220;42.716;23.306;2023-03-18T04:17:18;95640.59;;;0.60;100.00
20119;BME280;10220;42.716;23.306;2023-03-18T04:19:43;95624.78;;;0.66;100.00
20119;BME280;10220;42.716;23.306;2023-03-18T04:22:09;95617.75;;;0.40;100.00
20119;BME280;10220;42.716;23.306;2023-03-18T04:24:35;95641.00;;;0.75;100.00
20119;BME280;10220;42.716;23.306;2023-03-18T04:27:01;95648.16;;;1.18;100.00
20119;BME280;10220;42.716;23.306;2023-03-18T04:29:27;95653.94;;;1.30;100.00
20119;BME280;10220;42.716;23.306;2023-03-18T04:31:52;95666.16;;;1.17;100.00
20119;BME280;10220;42.716;23.306;2023-03-18T04:34:18;95664.72;;;0.08;100.00
20119;BME280;10220;42.716;23.306;2023-03-18T04:36:45;95667.84;;;0.21;100.00
20119;BME280;10220;42.716;23.306;2023-03-18T04:39:10;95668.38;;;0.24;100.00
20119;BME280;10220;42.716;23.306;2023-03-18T04:41:35;95667.78;;;0.11;100.00
20119;BME280;10220;42.716;23.306;2023-03-18T04:44:04;95670.72;;;0.37;100.00
20119;BME280;10220;42.716;23.306;2023-03-18T04:46:29;95665.06;;;0.43;100.00
20119;BME280;10220;42.716;23.306;2023-03-18T04:48:57;95669.81;;;0.66;100.00
20119;BME280;10220;42.716;23.306;2023-03-18T04:51:26;95678.03;;;0.88;100.00
20119;BME280;10220;42.716;23.306;2023-03-18T04:53:52;95671.22;;;1.08;100.00
20119;BME280;10220;42.716;23.306;2023-03-18T04:56:18;95676.34;;;1.17;100.00
20119;BME280;10220;42.716;23.306;2023-03-18T04:58:44;95690.53;;;1.10;100.00
20119;BME280;10220;42.716;23.306;2023-03-18T05:01:09;95670.53;;;1.53;100.00
20119;BME280;10220;42.716;23.306;2023-03-18T05:03:37;95682.53;;;1.98;100.00
20119;BME280;10220;42.716;23.306;2023-03-18T05:06:03;95672.63;;;2.58;100.00
20119;BME280;10220;42.716;23.306;2023-03-18T05:08:29;95677.44;;;2.61;100.00
20119;BME280;10220;42.716;23.306;2023-03-18T05:10:54;95673.31;;;2.24;100.00
20119;BME280;10220;42.716;23.306;2023-03-18T05:13:19;95685.84;;;1.53;100.00
20119;BME280;10220;42.716;23.306;2023-03-18T05:15:45;95676.56;;;1.71;100.00
20119;BME280;10220;42.716;23.306;2023-03-18T05:18:11;95681.13;;;1.67;100.00
20119;BME280;10220;42.716;23.306;2023-03-18T05:20:37;95675.25;;;1.57;100.00
20119;BME280;10220;42.716;23.306;2023-03-18T05:23:02;95679.25;;;1.69;100.00
20119;BME280;10220;42.716;23.306;2023-03-18T05:25:28;95665.41;;;2.17;100.00
20119;BME280;10220;42.716;23.306;2023-03-18T05:27:53;95664.41;;;2.54;100.00
20119;BME280;10220;42.716;23.306;2023-03-18T05:30:19;95668.06;;;1.89;100.00
20119;BME280;10220;42.716;23.306;2023-03-18T05:32:45;95676.03;;;1.01;100.00
20119;BME280;10220;42.716;23.306;2023-03-18T05:35:11;95674.31;;;1.39;100.00
20119;BME280;10220;42.716;23.306;2023-03-18T05:37:37;95674.75;;;1.99;100.00
20119;BME280;10220;42.716;23.306;2023-03-18T05:40:04;95679.41;;;2.13;100.00
20119;BME280;10220;42.716;23.306;2023-03-18T05:42:34;95679.53;;;2.48;100.00
20119;BME280;10220;42.716;23.306;2023-03-18T05:44:59;95680.78;;;2.88;100.00
20119;BME280;10220;42.716;23.306;2023-03-18T05:47:26;95692.59;;;2.45;100.00
20119;BME280;10220;42.716;23.306;2023-03-18T05:49:51;95695.91;;;2.55;100.00
20119;BME280;10220;42.716;23.306;2023-03-18T05:52:17;95690.78;;;2.28;100.00
20119;BME280;10220;42.716;23.306;2023-03-18T05:54:42;95696.47;;;2.49;100.00
20119;BME280;10220;42.716;23.306;2023-03-18T05:57:08;95703.06;;;2.78;100.00
20119;BME280;10220;42.716;23.306;2023-03-18T05:59:34;95708.03;;;2.53;100.00
20119;BME280;10220;42.716;23.306;2023-03-18T06:02:00;95692.28;;;2.57;100.00
20119;BME280;10220;42.716;23.306;2023-03-18T06:04:26;95705.16;;;3.09;100.00
20119;BME280;10220;42.716;23.306;2023-03-18T06:06:52;95691.50;;;3.36;100.00
20119;BME280;10220;42.716;23.306;2023-03-18T06:09:17;95690.25;;;3.22;100.00
20119;BME280;10220;42.716;23.306;2023-03-18T06:11:43;95708.97;;;3.05;100.00
20119;BME280;10220;42.716;23.306;2023-03-18T06:14:10;95701.38;;;3.13;100.00
20119;BME280;10220;42.716;23.306;2023-03-18T06:16:36;95706.16;;;2.99;100.00
20119;BME280;10220;42.716;23.306;2023-03-18T06:19:02;95706.09;;;2.91;100.00
20119;BME280;10220;42.716;23.306;2023-03-18T06:21:27;95700.09;;;1.08;100.00
20119;BME280;10220;42.716;23.306;2023-03-18T06:23:53;95711.63;;;1.12;100.00
20119;BME280;10220;42.716;23.306;2023-03-18T06:26:19;95713.69;;;0.69;100.00
20119;BME280;10220;42.716;23.306;2023-03-18T06:28:45;95711.66;;;0.63;100.00
20119;BME280;10220;42.716;23.306;2023-03-18T06:31:11;95703.53;;;0.40;100.00
20119;BME280;10220;42.716;23.306;2023-03-18T06:33:36;95704.13;;;0.53;100.00
20119;BME280;10220;42.716;23.306;2023-03-18T06:36:02;95672.22;;;0.09;100.00
20119;BME280;10220;42.716;23.306;2023-03-18T06:38:28;95691.84;;;-0.02;100.00
20119;BME280;10220;42.716;23.306;2023-03-18T06:40:55;95681.41;;;0.40;100.00
20119;BME280;10220;42.716;23.306;2023-03-18T06:43:21;95694.13;;;0.31;100.00
20119;BME280;10220;42.716;23.306;2023-03-18T06:45:47;95676.22;;;0.42;100.00
20119;BME280;10220;42.716;23.306;2023-03-18T06:48:13;95679.72;;;0.59;100.00
20119;BME280;10220;42.716;23.306;2023-03-18T06:50:39;95664.06;;;0.64;100.00
20119;BME280;10220;42.716;23.306;2023-03-18T06:53:06;95678.09;;;1.35;100.00
20119;BME280;10220;42.716;23.306;2023-03-18T06:55:32;95659.19;;;2.29;100.00
20119;BME280;10220;42.716;23.306;2023-03-18T06:57:57;95673.03;;;2.80;100.00
20119;BME280;10220;42.716;23.306;2023-03-18T07:00:23;95663.28;;;3.10;100.00
20119;BME280;10220;42.716;23.306;2023-03-18T07:02:49;95668.91;;;3.48;100.00
20119;BME280;10220;42.716;23.306;2023-03-18T07:05:15;95668.06;;;3.91;100.00
20119;BME280;10220;42.716;23.306;2023-03-18T07:07:41;95666.75;;;4.04;100.00
20119;BME280;10220;42.716;23.306;2023-03-18T07:10:10;95673.59;;;4.62;100.00
20119;BME280;10220;42.716;23.306;2023-03-18T07:12:40;95671.88;;;4.78;100.00
20119;BME280;10220;42.716;23.306;2023-03-18T07:15:06;95673.75;;;4.27;100.00
20119;BME280;10220;42.716;23.306;2023-03-18T07:17:32;95685.47;;;4.05;100.00
20119;BME280;10220;42.716;23.306;2023-03-18T07:19:57;95688.25;;;3.34;100.00
20119;BME280;10220;42.716;23.306;2023-03-18T07:22:22;95687.63;;;3.92;100.00
20119;BME280;10220;42.716;23.306;2023-03-18T07:24:49;95688.34;;;4.02;100.00
20119;BME280;10220;42.716;23.306;2023-03-18T07:27:15;95679.78;;;4.52;100.00
20119;BME280;10220;42.716;23.306;2023-03-18T07:29:41;95678.56;;;5.21;100.00
20119;BME280;10220;42.716;23.306;2023-03-18T07:32:07;95684.59;;;5.77;100.00
20119;BME280;10220;42.716;23.306;2023-03-18T07:34:33;95684.91;;;5.97;100.00
20119;BME280;10220;42.716;23.306;2023-03-18T07:36:58;95690.50;;;6.25;100.00
20119;BME280;10220;42.716;23.306;2023-03-18T07:39:24;95684.09;;;5.97;100.00
20119;BME280;10220;42.716;23.306;2023-03-18T07:41:49;95679.25;;;6.18;100.00
20119;BME280;10220;42.716;23.306;2023-03-18T07:44:16;95681.53;;;6.67;100.00
20119;BME280;10220;42.716;23.306;2023-03-18T07:46:41;95689.84;;;6.23;100.00
20119;BME280;10220;42.716;23.306;2023-03-18T07:49:06;95677.09;;;6.37;100.00
20119;BME280;10220;42.716;23.306;2023-03-18T07:51:32;95674.25;;;6.24;100.00
20119;BME280;10220;42.716;23.306;2023-03-18T07:53:58;95680.84;;;6.19;100.00
20119;BME280;10220;42.716;23.306;2023-03-18T07:56:24;95677.34;;;5.40;100.00
20119;BME280;10220;42.716;23.306;2023-03-18T07:58:50;95670.75;;;5.85;100.00
20119;BME280;10220;42.716;23.306;2023-03-18T08:01:16;95682.53;;;4.99;100.00
20119;BME280;10220;42.716;23.306;2023-03-18T08:03:43;95695.19;;;4.93;100.00
20119;BME280;10220;42.716;23.306;2023-03-18T08:06:09;95677.66;;;5.45;100.00
20119;BME280;10220;42.716;23.306;2023-03-18T08:08:36;95672.81;;;5.26;100.00
20119;BME280;10220;42.716;23.306;2023-03-18T08:11:02;95667.91;;;5.81;100.00
20119;BME280;10220;42.716;23.306;2023-03-18T08:13:27;95676.22;;;5.98;100.00
20119;BME280;10220;42.716;23.306;2023-03-18T08:15:53;95668.31;;;6.24;100.00
20119;BME280;10220;42.716;23.306;2023-03-18T08:18:20;95678.56;;;6.32;100.00
20119;BME280;10220;42.716;23.306;2023-03-18T08:20:46;95674.06;;;6.80;100.00
20119;BME280;10220;42.716;23.306;2023-03-18T08:23:12;95683.13;;;7.58;100.00
20119;BME280;10220;42.716;23.306;2023-03-18T08:25:39;95679.19;;;7.18;100.00
20119;BME280;10220;42.716;23.306;2023-03-18T08:28:05;95689.53;;;7.10;100.00
20119;BME280;10220;42.716;23.306;2023-03-18T08:30:32;95683.97;;;7.29;100.00
20119;BME280;10220;42.716;23.306;2023-03-18T08:32:58;95677.84;;;7.30;100.00
20119;BME280;10220;42.716;23.306;2023-03-18T08:35:24;95685.34;;;7.61;100.00
20119;BME280;10220;42.716;23.306;2023-03-18T08:37:50;95670.00;;;7.46;100.00
20119;BME280;10220;42.716;23.306;2023-03-18T08:40:16;95680.56;;;8.32;100.00
20119;BME280;10220;42.716;23.306;2023-03-18T08:42:42;95675.31;;;8.69;100.00
20119;BME280;10220;42.716;23.306;2023-03-18T08:45:08;95676.22;;;9.81;100.00
20119;BME280;10220;42.716;23.306;2023-03-18T08:47:33;95674.09;;;7.99;100.00
20119;BME280;10220;42.716;23.306;2023-03-18T08:49:59;95655.84;;;8.80;100.00
20119;BME280;10220;42.716;23.306;2023-03-18T08:52:24;95670.41;;;10.48;100.00
20119;BME280;10220;42.716;23.306;2023-03-18T08:54:50;95660.63;;;9.33;92.82
20119;BME280;10220;42.716;23.306;2023-03-18T08:57:15;95661.59;;;9.74;100.00
20119;BME280;10220;42.716;23.306;2023-03-18T08:59:41;95653.19;;;11.08;100.00
20119;BME280;10220;42.716;23.306;2023-03-18T09:02:09;95659.03;;;10.43;94.52
20119;BME280;10220;42.716;23.306;2023-03-18T09:04:36;95655.09;;;11.46;88.37
20119;BME280;10220;42.716;23.306;2023-03-18T09:07:02;95650.28;;;11.43;81.02
20119;BME280;10220;42.716;23.306;2023-03-18T09:09:28;95678.50;;;9.70;75.99
20119;BME280;10220;42.716;23.306;2023-03-18T09:11:53;95667.16;;;9.92;86.70
20119;BME280;10220;42.716;23.306;2023-03-18T09:14:20;95669.81;;;12.18;100.00
20119;BME280;10220;42.716;23.306;2023-03-18T09:16:45;95673.19;;;12.19;82.81
20119;BME280;10220;42.716;23.306;2023-03-18T09:19:11;95655.19;;;12.36;85.23
20119;BME280;10220;42.716;23.306;2023-03-18T09:21:37;95655.81;;;12.06;71.86
20119;BME280;10220;42.716;23.306;2023-03-18T09:24:03;95664.19;;;12.21;67.09
20119;BME280;10220;42.716;23.306;2023-03-18T09:26:28;95655.88;;;11.34;62.89
20119;BME280;10220;42.716;23.306;2023-03-18T09:28:54;95658.00;;;12.03;68.11
20119;BME280;10220;42.716;23.306;2023-03-18T09:31:20;95663.28;;;10.56;60.00
20119;BME280;10220;42.716;23.306;2023-03-18T09:33:45;95666.66;;;10.23;70.55
20119;BME280;10220;42.716;23.306;2023-03-18T09:36:11;95627.50;;;10.73;64.01
20119;BME280;10220;42.716;23.306;2023-03-18T09:38:36;95653.41;;;10.39;65.29
20119;BME280;10220;42.716;23.306;2023-03-18T09:43:51;95656.13;;;11.58;68.90
20119;BME280;10220;42.716;23.306;2023-03-18T09:54:15;95652.19;;;12.20;57.47
20119;BME280;10220;42.716;23.306;2023-03-18T09:56:44;95665.75;;;11.77;54.11
20119;BME280;10220;42.716;23.306;2023-03-18T09:59:37;95650.78;;;11.98;55.05
20119;BME280;10220;42.716;23.306;2023-03-18T10:02:07;95633.56;;;12.55;58.61
20119;BME280;10220;42.716;23.306;2023-03-18T10:04:57;95644.19;;;12.47;52.03
20119;BME280;10220;42.716;23.306;2023-03-18T10:07:28;95663.75;;;11.60;53.71
20119;BME280;10220;42.716;23.306;2023-03-18T10:10:08;95627.63;;;10.99;50.91
20119;BME280;10220;42.716;23.306;2023-03-18T10:12:41;95640.66;;;11.18;54.11
20119;BME280;10220;42.716;23.306;2023-03-18T10:17:44;95643.16;;;11.58;52.46
20119;BME280;10220;42.716;23.306;2023-03-18T10:23:48;95646.78;;;11.96;51.53
20119;BME280;10220;42.716;23.306;2023-03-18T10:26:34;95641.03;;;12.13;49.13
20119;BME280;10220;42.716;23.306;2023-03-18T10:34:14;95630.16;;;12.61;48.80
20119;BME280;10220;42.716;23.306;2023-03-18T10:36:52;95632.38;;;12.51;47.71
20119;BME280;10220;42.716;23.306;2023-03-18T10:39:22;95632.38;;;12.45;46.46
20119;BME280;10220;42.716;23.306;2023-03-18T10:41:49;95632.03;;;11.90;47.34
20119;BME280;10220;42.716;23.306;2023-03-18T10:44:19;95634.78;;;11.50;47.39
20119;BME280;10220;42.716;23.306;2023-03-18T10:46:46;95635.72;;;11.49;49.01
20119;BME280;10220;42.716;23.306;2023-03-18T10:49:16;95627.81;;;10.97;49.92
20119;BME280;10220;42.716;23.306;2023-03-18T10:51:51;95631.13;;;11.31;53.02
20119;BME280;10220;42.716;23.306;2023-03-18T10:54:33;95617.47;;;10.97;54.92
20119;BME280;10220;42.716;23.306;2023-03-18T10:57:00;95630.06;;;11.13;53.48
20119;BME280;10220;42.716;23.306;2023-03-18T10:59:27;95636.69;;;11.22;53.72
20119;BME280;10220;42.716;23.306;2023-03-18T11:01:58;95618.13;;;10.72;53.82
20119;BME280;10220;42.716;23.306;2023-03-18T11:04:27;95640.03;;;10.36;53.71
20119;BME280;10220;42.716;23.306;2023-03-18T11:07:05;95635.00;;;10.28;54.91
20119;BME280;10220;42.716;23.306;2023-03-18T11:09:34;95642.00;;;10.27;53.68
20119;BME280;10220;42.716;23.306;2023-03-18T11:12:04;95635.59;;;10.23;54.83
20119;BME280;10220;42.716;23.306;2023-03-18T11:14:32;95645.94;;;9.54;52.83
20119;BME280;10220;42.716;23.306;2023-03-18T11:17:03;95647.94;;;9.38;53.49
20119;BME280;10220;42.716;23.306;2023-03-18T11:22:02;95632.19;;;9.75;53.28
20119;BME280;10220;42.716;23.306;2023-03-18T11:24:29;95639.25;;;9.87;51.09
20119;BME280;10220;42.716;23.306;2023-03-18T11:29:43;95620.56;;;10.12;48.14
20119;BME280;10220;42.716;23.306;2023-03-18T11:32:27;95619.28;;;10.29;47.11
20119;BME280;10220;42.716;23.306;2023-03-18T11:34:58;95618.91;;;10.32;46.88
20119;BME280;10220;42.716;23.306;2023-03-18T11:37:34;95615.25;;;10.54;46.48
20119;BME280;10220;42.716;23.306;2023-03-18T11:42:37;95616.28;;;10.26;46.75
20119;BME280;10220;42.716;23.306;2023-03-18T11:45:28;95607.63;;;10.46;46.99
20119;BME280;10220;42.716;23.306;2023-03-18T11:47:56;95604.69;;;11.02;46.20
20119;BME280;10220;42.716;23.306;2023-03-18T11:50:23;95616.44;;;10.98;45.63
20119;BME280;10220;42.716;23.306;2023-03-18T11:53:09;95622.66;;;10.57;46.04
20119;BME280;10220;42.716;23.306;2023-03-18T11:55:59;95615.56;;;10.78;46.30
20119;BME280;10220;42.716;23.306;2023-03-18T12:09:40;95608.22;;;10.82;46.41
20119;BME280;10220;42.716;23.306;2023-03-18T12:15:09;95607.69;;;10.59;45.62
20119;BME280;10220;42.716;23.306;2023-03-18T12:17:49;95619.59;;;10.87;45.67
20119;BME280;10220;42.716;23.306;2023-03-18T12:23:04;95599.97;;;10.65;46.83
20119;BME280;10220;42.716;23.306;2023-03-18T12:46:29;95597.97;;;10.27;45.77
20119;BME280;10220;42.716;23.306;2023-03-18T12:49:02;95598.59;;;10.36;44.95
20119;BME280;10220;42.716;23.306;2023-03-18T12:52:04;95591.91;;;10.14;44.56
20119;BME280;10220;42.716;23.306;2023-03-18T12:55:01;95601.13;;;9.95;44.76
20119;BME280;10220;42.716;23.306;2023-03-18T12:57:51;95611.63;;;9.67;44.33
20119;BME280;10220;42.716;23.306;2023-03-18T13:00:28;95605.38;;;9.82;45.04
20119;BME280;10220;42.716;23.306;2023-03-18T13:03:03;95581.16;;;10.10;44.41
20119;BME280;10220;42.716;23.306;2023-03-18T13:05:45;95604.94;;;10.27;44.48
20119;BME280;10220;42.716;23.306;2023-03-18T13:10:40;95601.75;;;10.25;44.87
20119;BME280;10220;42.716;23.306;2023-03-18T13:13:08;95586.75;;;10.20;45.05
20119;BME280;10220;42.716;23.306;2023-03-18T13:15:43;95604.28;;;10.18;44.83
20119;BME280;10220;42.716;23.306;2023-03-18T13:18:24;95601.66;;;10.12;45.19
20119;BME280;10220;42.716;23.306;2023-03-18T13:20:53;95601.06;;;10.50;44.66
20119;BME280;10220;42.716;23.306;2023-03-18T13:23:46;95601.38;;;10.68;44.43
20119;BME280;10220;42.716;23.306;2023-03-18T13:29:02;95592.28;;;10.85;44.03
20119;BME280;10220;42.716;23.306;2023-03-18T13:39:34;95600.19;;;10.03;44.38
20119;BME280;10220;42.716;23.306;2023-03-18T13:47:20;95606.94;;;9.77;45.41
20119;BME280;10220;42.716;23.306;2023-03-18T13:49:47;95599.22;;;9.83;44.57
20119;BME280;10220;42.716;23.306;2023-03-18T13:52:39;95591.16;;;9.72;43.85
20119;BME280;10220;42.716;23.306;2023-03-18T14:00:42;95589.19;;;9.74;45.30
20119;BME280;10220;42.716;23.306;2023-03-18T14:21:44;95568.75;;;10.40;43.96
20119;BME280;10220;42.716;23.306;2023-03-18T14:26:46;95553.56;;;9.96;44.37
20119;BME280;10220;42.716;23.306;2023-03-18T14:29:23;95592.72;;;10.14;44.39
20119;BME280;10220;42.716;23.306;2023-03-18T14:31:55;95571.84;;;9.95;44.13
20119;BME280;10220;42.716;23.306;2023-03-18T14:34:33;95579.84;;;9.73;44.85
20119;BME280;10220;42.716;23.306;2023-03-18T14:39:40;95592.81;;;10.00;44.22
20119;BME280;10220;42.716;23.306;2023-03-18T14:45:02;95582.28;;;9.81;44.37
20119;BME280;10220;42.716;23.306;2023-03-18T14:48:00;95584.41;;;9.71;44.74
20119;BME280;10220;42.716;23.306;2023-03-18T14:50:49;95589.91;;;9.89;43.72
20119;BME280;10220;42.716;23.306;2023-03-18T14:55:57;95592.41;;;9.76;43.46
20119;BME280;10220;42.716;23.306;2023-03-18T14:58:25;95598.59;;;9.81;43.78
20119;BME280;10220;42.716;23.306;2023-03-18T15:01:03;95583.50;;;9.85;43.52
20119;BME280;10220;42.716;23.306;2023-03-18T15:03:30;95586.34;;;9.90;43.87
20119;BME280;10220;42.716;23.306;2023-03-18T15:06:01;95597.81;;;9.81;44.28
20119;BME280;10220;42.716;23.306;2023-03-18T15:08:29;95592.97;;;9.71;44.29